Time;durP1;ratioP1;P1;durP2;ratioP2;P2;SDS_P1;SDS_P2;PMS_P1;PMS_P2;Temp;Humidity;BMP_temperature;BMP_pressure;BME280_temperature;BME280_humidity;BME280_pressure;Samples;Min_cycle;Max_cycle;Signal;HPM_P1;HPM_P2
2023/12/26 00:01:45;;;;;;;0.50;0.33;;;9.50;99.90;;;;;;4212638;28;20219;-77
2023/12/26 00:03:49;;;;;;;0.30;0.30;;;9.50;99.90;;;;;;4212187;28;20634;-76
2023/12/26 00:05:51;;;;;;;0.30;0.30;;;9.50;99.90;;;;;;4210523;28;20227;-78
2023/12/26 00:07:52;;;;;;;0.30;0.30;;;9.50;99.90;;;;;;4212410;28;20228;-79
2023/12/26 00:09:59;;;;;;;0.47;0.30;;;9.50;99.90;;;;;;4210624;28;20768;-78
2023/12/26 00:12:00;;;;;;;0.30;0.30;;;9.60;99.90;;;;;;4213026;28;20314;-78
2023/12/26 00:14:04;;;;;;;0.20;0.20;;;9.60;99.90;;;;;;4215980;28;20555;-76
2023/12/26 00:16:07;;;;;;;0.43;0.40;;;9.50;99.90;;;;;;4212114;28;20261;-79
2023/12/26 00:18:09;;;;;;;0.20;0.20;;;9.60;99.90;;;;;;4217304;28;20197;-76
2023/12/26 00:20:13;;;;;;;0.20;0.20;;;9.50;99.90;;;;;;4210475;28;20729;-78
2023/12/26 00:22:15;;;;;;;0.90;0.20;;;9.60;99.90;;;;;;4216933;28;20227;-76
2023/12/26 00:24:16;;;;;;;1.60;0.30;;;9.60;99.90;;;;;;4219691;28;20679;-75
2023/12/26 00:26:18;;;;;;;0.30;0.30;;;9.60;99.90;;;;;;4215267;28;20610;-78
2023/12/26 00:28:20;;;;;;;0.30;0.30;;;9.60;99.90;;;;;;4210807;28;20695;-77
2023/12/26 00:30:22;;;;;;;0.67;0.40;;;9.60;99.90;;;;;;4214146;28;20211;-79
2023/12/26 00:32:24;;;;;;;0.30;0.30;;;9.50;99.90;;;;;;4214743;28;20287;-79
2023/12/26 00:34:26;;;;;;;0.20;0.20;;;9.60;99.90;;;;;;4214395;28;20715;-79
2023/12/26 00:36:28;;;;;;;0.20;0.20;;;9.60;99.90;;;;;;4215134;28;20208;-76
2023/12/26 00:38:30;;;;;;;0.20;0.20;;;9.50;99.90;;;;;;4215836;28;20628;-78
2023/12/26 00:40:32;;;;;;;0.40;0.10;;;9.60;99.90;;;;;;4213907;28;20298;-78
2023/12/26 00:42:34;;;;;;;0.17;0.17;;;9.60;99.90;;;;;;4214164;28;20293;-78
2023/12/26 00:44:36;;;;;;;0.20;0.10;;;9.50;99.90;;;;;;4220248;28;20580;-76
2023/12/26 00:46:40;;;;;;;0.20;0.20;;;9.50;99.90;;;;;;4216390;28;20290;-76
2023/12/26 00:48:42;;;;;;;0.20;0.20;;;9.50;99.90;;;;;;4225507;28;20222;-76
2023/12/26 00:50:44;;;;;;;0.10;0.10;;;9.50;99.90;;;;;;4214497;28;20748;-76
2023/12/26 00:52:46;;;;;;;0.20;0.20;;;9.50;99.90;;;;;;4217294;28;20232;-76
2023/12/26 00:54:48;;;;;;;0.20;0.20;;;9.30;99.90;;;;;;4216423;28;20211;-75
2023/12/26 00:56:50;;;;;;;0.10;0.10;;;9.50;99.90;;;;;;4214431;28;20216;-76
2023/12/26 00:58:51;;;;;;;0.53;0.20;;;9.50;99.90;;;;;;4224142;28;20203;-76
2023/12/26 01:00:53;;;;;;;0.10;0.10;;;9.40;99.90;;;;;;4215527;28;20235;-79
2023/12/26 01:03:00;;;;;;;0.37;0.20;;;9.40;99.90;;;;;;4216245;28;20314;-77
2023/12/26 01:05:05;;;;;;;0.60;0.10;;;9.40;99.90;;;;;;4217211;28;20222;-77
2023/12/26 01:07:07;;;;;;;0.10;0.10;;;9.40;99.90;;;;;;4222475;28;20294;-77
2023/12/26 01:09:09;;;;;;;0.30;0.30;;;9.40;99.90;;;;;;4221172;28;20561;-76
2023/12/26 01:11:11;;;;;;;0.20;0.10;;;9.40;99.90;;;;;;4221277;28;20209;-75
2023/12/26 01:13:13;;;;;;;0.20;0.20;;;9.50;99.90;;;;;;4217667;28;20234;-79
2023/12/26 01:15:15;;;;;;;0.30;0.27;;;9.50;99.90;;;;;;4214515;28;21029;-77
2023/12/26 01:17:17;;;;;;;0.33;0.20;;;9.50;99.90;;;;;;4214262;28;20277;-76
2023/12/26 01:19:20;;;;;;;0.17;0.17;;;9.50;99.90;;;;;;4220857;28;20200;-76
2023/12/26 01:21:22;;;;;;;0.10;0.10;;;9.50;99.90;;;;;;4216848;28;20212;-78
2023/12/26 01:23:24;;;;;;;2.40;0.20;;;9.40;99.90;;;;;;4214037;28;20266;-75
2023/12/26 01:25:26;;;;;;;0.53;0.20;;;9.50;99.90;;;;;;4214886;28;20602;-76
2023/12/26 01:27:34;;;;;;;0.20;0.20;;;9.40;99.90;;;;;;4222678;28;20709;-76
2023/12/26 01:29:36;;;;;;;0.33;0.20;;;9.50;99.90;;;;;;4213283;28;20207;-76
2023/12/26 01:31:39;;;;;;;0.20;0.20;;;9.50;99.90;;;;;;4213287;28;20279;-76
2023/12/26 01:33:41;;;;;;;0.10;0.10;;;9.50;99.90;;;;;;4213543;28;20209;-76
2023/12/26 01:35:44;;;;;;;1.90;0.30;;;9.50;99.90;;;;;;4214950;28;20201;-78
2023/12/26 01:37:46;;;;;;;0.60;0.10;;;9.50;99.90;;;;;;4213330;28;20200;-77
2023/12/26 01:39:47;;;;;;;0.20;0.20;;;9.50;99.90;;;;;;4215634;28;20215;-76
2023/12/26 01:41:49;;;;;;;2.33;0.30;;;9.70;99.90;;;;;;4218727;28;20267;-77
2023/12/26 01:43:51;;;;;;;0.30;0.30;;;9.60;99.90;;;;;;4219365;28;20211;-77
2023/12/26 01:45:58;;;;;;;0.20;0.20;;;9.60;99.90;;;;;;4218025;28;20212;-77
2023/12/26 01:48:02;;;;;;;0.90;0.23;;;9.50;99.90;;;;;;4214496;28;20227;-76
2023/12/26 01:50:04;;;;;;;0.30;0.30;;;9.60;99.90;;;;;;4213226;28;20213;-75
2023/12/26 01:52:09;;;;;;;0.20;0.20;;;9.60;99.90;;;;;;4213480;28;20232;-76
2023/12/26 01:54:11;;;;;;;0.30;0.20;;;9.60;99.90;;;;;;4214894;28;20899;-76
2023/12/26 01:56:14;;;;;;;0.43;0.30;;;9.60;99.90;;;;;;4214295;28;20215;-78
2023/12/26 01:58:17;;;;;;;0.27;0.20;;;9.60;99.90;;;;;;4216310;28;20261;-75
2023/12/26 02:00:18;;;;;;;0.43;0.20;;;9.60;99.90;;;;;;4216473;28;20319;-78
2023/12/26 02:02:20;;;;;;;0.20;0.20;;;9.60;99.90;;;;;;4211360;28;20287;-77
2023/12/26 02:04:23;;;;;;;0.10;0.10;;;9.60;99.90;;;;;;4213408;28;20250;-76
2023/12/26 02:06:25;;;;;;;0.23;0.13;;;9.60;99.90;;;;;;4212903;28;20654;-77
2023/12/26 02:08:29;;;;;;;0.10;0.10;;;9.60;99.90;;;;;;4212255;28;20689;-76
2023/12/26 02:10:31;;;;;;;0.20;0.20;;;9.60;99.90;;;;;;4214294;28;20208;-77
2023/12/26 02:12:33;;;;;;;0.13;0.13;;;9.70;99.90;;;;;;4216684;28;20228;-76
2023/12/26 02:14:36;;;;;;;0.30;0.20;;;9.60;99.90;;;;;;4212517;28;20227;-78
2023/12/26 02:16:39;;;;;;;0.20;0.20;;;9.60;99.90;;;;;;4214711;28;20739;-77
2023/12/26 02:18:41;;;;;;;0.20;0.20;;;9.70;99.90;;;;;;4212672;28;20210;-76
2023/12/26 02:20:43;;;;;;;1.73;0.30;;;9.70;99.90;;;;;;4213611;28;20216;-75
2023/12/26 02:22:46;;;;;;;0.20;0.20;;;9.70;99.90;;;;;;4216034;28;20230;-76
2023/12/26 02:24:50;;;;;;;0.63;0.20;;;9.70;99.90;;;;;;4212317;28;20692;-78
2023/12/26 02:26:55;;;;;;;0.43;0.27;;;9.70;99.90;;;;;;4217987;28;20215;-75
2023/12/26 02:28:58;;;;;;;0.30;0.20;;;9.70;99.90;;;;;;4213912;28;20271;-77
2023/12/26 02:31:01;;;;;;;0.20;0.20;;;9.70;99.90;;;;;;4211624;28;20211;-78
2023/12/26 02:33:05;;;;;;;0.80;0.33;;;9.60;99.90;;;;;;4212041;28;20704;-78
2023/12/26 02:35:08;;;;;;;0.40;0.20;;;9.70;99.90;;;;;;4212055;28;20291;-76
2023/12/26 02:37:09;;;;;;;0.70;0.30;;;9.70;99.90;;;;;;4212779;28;20208;-78
2023/12/26 02:39:13;;;;;;;0.27;0.27;;;9.70;99.90;;;;;;4218144;28;21080;-76
2023/12/26 02:41:17;;;;;;;0.20;0.20;;;9.70;99.90;;;;;;4218338;28;20218;-75
2023/12/26 02:43:19;;;;;;;0.20;0.20;;;9.70;99.90;;;;;;4212783;28;20244;-78
2023/12/26 02:45:21;;;;;;;1.23;0.30;;;9.70;99.90;;;;;;4209447;28;20204;-77
2023/12/26 02:47:23;;;;;;;0.20;0.20;;;9.70;99.90;;;;;;4215244;28;20888;-78
2023/12/26 02:49:25;;;;;;;0.77;0.77;;;9.60;99.90;;;;;;4216258;28;20871;-77
2023/12/26 02:51:27;;;;;;;0.23;0.23;;;9.60;99.90;;;;;;4213361;28;20213;-78
2023/12/26 02:53:28;;;;;;;0.30;0.30;;;9.60;99.90;;;;;;4211141;28;20294;-79
2023/12/26 02:55:30;;;;;;;0.50;0.30;;;9.70;99.90;;;;;;4216357;28;20301;-75
2023/12/26 02:57:33;;;;;;;0.20;0.20;;;9.60;99.90;;;;;;4214629;28;20216;-75
2023/12/26 02:59:34;;;;;;;0.27;0.20;;;9.70;99.90;;;;;;4207118;28;20548;-76
2023/12/26 03:01:36;;;;;;;0.63;0.30;;;9.70;99.90;;;;;;4212132;28;20205;-74
2023/12/26 03:03:38;;;;;;;0.30;0.30;;;9.60;99.90;;;;;;4214343;28;20211;-76
2023/12/26 03:05:41;;;;;;;0.20;0.20;;;9.50;99.90;;;;;;4212513;28;20603;-75
2023/12/26 03:07:43;;;;;;;0.37;0.27;;;9.60;99.90;;;;;;4214364;28;20252;-75
2023/12/26 03:09:45;;;;;;;0.40;0.30;;;9.70;99.90;;;;;;4218700;28;20763;-75
2023/12/26 03:11:47;;;;;;;0.20;0.20;;;9.70;99.90;;;;;;4215259;28;20207;-75
2023/12/26 03:13:50;;;;;;;1.30;0.23;;;9.70;99.90;;;;;;4217488;28;20216;-75
2023/12/26 03:15:52;;;;;;;0.83;0.30;;;9.70;99.90;;;;;;4212117;28;20242;-75
2023/12/26 03:17:54;;;;;;;0.50;0.30;;;9.70;99.90;;;;;;4212171;28;20213;-77
2023/12/26 03:19:56;;;;;;;0.20;0.20;;;9.70;99.90;;;;;;4211959;28;20673;-77
2023/12/26 03:21:58;;;;;;;0.47;0.30;;;9.70;99.90;;;;;;4217304;28;20285;-76
2023/12/26 03:24:00;;;;;;;0.30;0.30;;;9.80;99.90;;;;;;4217097;28;20215;-76
2023/12/26 03:26:02;;;;;;;0.23;0.20;;;9.80;99.90;;;;;;4202146;28;20231;-78
2023/12/26 03:28:06;;;;;;;0.33;0.20;;;9.80;99.90;;;;;;4217803;28;20265;-76
2023/12/26 03:30:09;;;;;;;0.60;0.30;;;9.80;99.90;;;;;;4211986;28;20683;-76
2023/12/26 03:32:17;;;;;;;1.73;0.30;;;9.80;99.90;;;;;;4213032;28;20251;-75
2023/12/26 03:34:19;;;;;;;0.37;0.37;;;9.80;99.90;;;;;;4214211;28;20212;-78
2023/12/26 03:36:24;;;;;;;1.20;0.37;;;9.80;99.90;;;;;;4209317;28;20204;-76
2023/12/26 03:38:26;;;;;;;0.20;0.20;;;9.90;99.90;;;;;;4210717;28;20220;-78
2023/12/26 03:40:28;;;;;;;0.30;0.23;;;9.90;99.90;;;;;;4198076;28;20231;-78
2023/12/26 03:42:29;;;;;;;2.00;0.30;;;9.90;99.90;;;;;;4213508;28;20232;-78
2023/12/26 03:44:31;;;;;;;0.23;0.20;;;9.90;99.90;;;;;;4217927;28;20200;-80
2023/12/26 03:46:34;;;;;;;0.27;0.20;;;9.90;99.90;;;;;;4193805;28;20312;-77
2023/12/26 03:48:36;;;;;;;0.20;0.20;;;9.90;99.90;;;;;;4207705;28;20248;-76
2023/12/26 03:50:39;;;;;;;1.20;0.20;;;10.00;99.90;;;;;;4211828;28;20216;-77
2023/12/26 03:52:40;;;;;;;0.40;0.20;;;9.90;99.90;;;;;;4214368;28;20231;-75
2023/12/26 03:54:42;;;;;;;0.30;0.20;;;9.90;99.90;;;;;;4217654;28;20238;-75
2023/12/26 03:56:43;;;;;;;0.40;0.30;;;9.90;99.90;;;;;;4212003;28;20250;-75
2023/12/26 03:58:45;;;;;;;0.30;0.20;;;9.90;99.90;;;;;;4211011;28;20204;-77
2023/12/26 04:00:47;;;;;;;1.33;0.20;;;9.90;99.90;;;;;;4210805;28;20197;-75
2023/12/26 04:02:50;;;;;;;0.30;0.20;;;9.90;99.90;;;;;;4212256;28;20749;-77
2023/12/26 04:04:52;;;;;;;0.73;0.20;;;10.00;99.90;;;;;;4215469;28;20215;-78
2023/12/26 04:06:54;;;;;;;0.90;0.20;;;10.00;99.90;;;;;;4216949;28;20215;-78
2023/12/26 04:08:57;;;;;;;0.20;0.20;;;10.00;99.90;;;;;;4219037;28;20757;-78
2023/12/26 04:10:59;;;;;;;3.80;0.30;;;10.00;99.90;;;;;;4215030;28;20212;-78
2023/12/26 04:13:01;;;;;;;0.60;0.10;;;10.00;99.90;;;;;;4213718;28;20255;-78
2023/12/26 04:15:03;;;;;;;0.40;0.40;;;10.10;99.90;;;;;;4214087;28;20204;-78
2023/12/26 04:17:04;;;;;;;0.20;0.20;;;10.00;99.90;;;;;;4214028;28;20266;-77
2023/12/26 04:19:08;;;;;;;0.27;0.27;;;10.00;99.90;;;;;;4214859;28;20204;-75
2023/12/26 04:21:10;;;;;;;0.20;0.20;;;10.10;99.90;;;;;;4216210;28;20220;-75
2023/12/26 04:23:12;;;;;;;0.10;0.10;;;10.10;99.90;;;;;;4214412;28;20247;-75
2023/12/26 04:25:14;;;;;;;0.10;0.10;;;10.10;99.90;;;;;;4215676;28;20241;-75
2023/12/26 04:27:16;;;;;;;0.33;0.20;;;10.10;99.90;;;;;;4215772;28;20603;-74
2023/12/26 04:29:18;;;;;;;0.13;0.13;;;10.10;99.90;;;;;;4214462;28;20229;-75
2023/12/26 04:31:20;;;;;;;0.20;0.20;;;10.10;99.90;;;;;;4215420;28;20745;-75
2023/12/26 04:33:24;;;;;;;0.10;0.10;;;10.10;99.90;;;;;;4213731;28;20235;-75
2023/12/26 04:35:27;;;;;;;0.20;0.20;;;10.20;99.90;;;;;;4213974;28;20218;-77
2023/12/26 04:37:29;;;;;;;0.27;0.20;;;10.10;99.90;;;;;;4211260;28;20626;-78
2023/12/26 04:39:31;;;;;;;1.40;0.20;;;10.20;99.90;;;;;;4215988;28;20223;-76
2023/12/26 04:41:33;;;;;;;0.67;0.20;;;10.20;99.90;;;;;;4217348;28;20692;-76
2023/12/26 04:43:35;;;;;;;0.37;0.30;;;10.20;99.90;;;;;;4214891;28;20601;-77
2023/12/26 04:45:38;;;;;;;0.10;0.10;;;10.20;99.90;;;;;;4213851;28;20295;-76
2023/12/26 04:47:40;;;;;;;1.37;0.20;;;10.20;99.90;;;;;;4209562;28;20204;-75
2023/12/26 04:49:42;;;;;;;0.10;0.10;;;10.30;99.90;;;;;;4219681;28;20228;-75
2023/12/26 04:51:45;;;;;;;0.00;0.00;;;10.20;99.90;;;;;;4217367;28;20217;-75
2023/12/26 04:53:48;;;;;;;0.23;0.20;;;10.20;99.90;;;;;;4214302;28;20546;-74
2023/12/26 04:55:50;;;;;;;0.07;0.07;;;10.30;99.90;;;;;;4216061;28;20214;-75
2023/12/26 04:57:51;;;;;;;0.20;0.10;;;10.20;99.90;;;;;;4215066;28;20205;-75
2023/12/26 04:59:53;;;;;;;0.10;0.10;;;10.30;99.90;;;;;;4214294;28;20403;-79
2023/12/26 05:01:55;;;;;;;0.20;0.20;;;10.30;99.90;;;;;;4217242;28;20225;-78
2023/12/26 05:03:57;;;;;;;0.10;0.10;;;10.20;99.90;;;;;;4214189;28;20235;-75
2023/12/26 05:05:59;;;;;;;0.00;0.00;;;10.20;99.90;;;;;;4215954;28;20288;-74
2023/12/26 05:08:02;;;;;;;0.23;0.10;;;10.20;99.90;;;;;;4215984;28;20204;-75
2023/12/26 05:10:05;;;;;;;0.10;0.10;;;10.30;99.90;;;;;;4214384;28;20224;-76
2023/12/26 05:12:08;;;;;;;0.03;0.03;;;10.30;99.90;;;;;;4222342;28;20294;-74
2023/12/26 05:14:09;;;;;;;0.20;0.20;;;10.20;99.90;;;;;;4202990;28;20224;-76
2023/12/26 05:16:11;;;;;;;0.00;0.00;;;10.20;99.90;;;;;;4216187;28;20207;-75
2023/12/26 05:18:12;;;;;;;0.20;0.10;;;10.30;99.90;;;;;;4216937;28;20269;-74
2023/12/26 05:20:15;;;;;;;0.00;0.00;;;10.30;99.90;;;;;;4213288;28;20200;-74
2023/12/26 05:22:17;;;;;;;0.00;0.00;;;10.30;99.90;;;;;;4213032;28;20236;-75
2023/12/26 05:24:20;;;;;;;0.13;0.13;;;10.20;99.90;;;;;;4218078;28;20220;-74
2023/12/26 05:26:22;;;;;;;0.20;0.10;;;10.20;99.90;;;;;;4212107;28;20220;-77
2023/12/26 05:28:24;;;;;;;1.70;0.10;;;10.30;99.90;;;;;;4214056;28;20208;-78
2023/12/26 05:30:26;;;;;;;0.10;0.10;;;10.30;99.90;;;;;;4214668;28;20220;-77
2023/12/26 05:32:28;;;;;;;0.30;0.10;;;10.30;99.90;;;;;;4209462;28;20613;-78
2023/12/26 05:34:29;;;;;;;0.10;0.10;;;10.30;99.90;;;;;;4214501;28;20209;-78
2023/12/26 05:36:31;;;;;;;0.00;0.00;;;10.20;99.90;;;;;;4218595;28;20573;-76
2023/12/26 05:38:33;;;;;;;0.10;0.10;;;10.20;99.90;;;;;;4215509;28;20224;-75
2023/12/26 05:40:39;;;;;;;0.20;0.10;;;10.30;99.90;;;;;;4214317;28;20730;-74
2023/12/26 05:42:42;;;;;;;0.03;0.03;;;10.20;99.90;;;;;;4213579;28;20270;-73
2023/12/26 05:44:42;;;;;;;0.10;0.10;;;10.30;99.90;;;;;;4218840;28;20219;-74
2023/12/26 05:46:45;;;;;;;0.00;0.00;;;10.30;99.90;;;;;;4218919;28;20835;-74
2023/12/26 05:48:47;;;;;;;0.07;0.07;;;10.30;99.90;;;;;;4194379;28;20262;-75
2023/12/26 05:50:49;;;;;;;0.10;0.10;;;10.30;99.90;;;;;;4196591;28;20227;-75
2023/12/26 05:52:51;;;;;;;0.00;0.00;;;10.20;99.90;;;;;;4217716;28;20232;-74
2023/12/26 05:54:52;;;;;;;0.47;0.00;;;10.30;99.90;;;;;;4219886;28;20210;-74
2023/12/26 05:56:56;;;;;;;0.07;0.07;;;10.20;99.90;;;;;;4217814;28;20287;-75
2023/12/26 05:58:59;;;;;;;0.00;0.00;;;10.20;99.90;;;;;;4214163;28;20220;-73
2023/12/26 06:01:02;;;;;;;0.20;0.07;;;10.20;99.90;;;;;;4220164;28;20212;-76
2023/12/26 06:03:04;;;;;;;0.83;0.10;;;10.20;99.90;;;;;;4214415;28;20301;-74
2023/12/26 06:05:07;;;;;;;0.20;0.10;;;10.20;99.90;;;;;;4213423;28;20208;-74
2023/12/26 06:07:09;;;;;;;0.00;0.00;;;10.30;99.90;;;;;;4213225;28;20213;-74
2023/12/26 06:09:10;;;;;;;0.10;0.10;;;10.30;99.90;;;;;;4216480;28;20208;-73
2023/12/26 06:11:12;;;;;;;0.70;0.00;;;10.20;99.90;;;;;;4217263;28;20211;-74
2023/12/26 06:13:15;;;;;;;0.10;0.07;;;10.20;99.90;;;;;;4193989;28;20355;-74
2023/12/26 06:15:17;;;;;;;0.53;0.13;;;10.30;99.90;;;;;;4219563;28;20205;-77
2023/12/26 06:17:21;;;;;;;0.20;0.13;;;10.30;99.90;;;;;;4211075;28;20217;-76
2023/12/26 06:19:23;;;;;;;0.83;0.20;;;10.30;99.90;;;;;;4211678;28;20801;-79
2023/12/26 06:21:25;;;;;;;0.00;0.00;;;10.30;99.90;;;;;;4210912;28;20711;-76
2023/12/26 06:23:27;;;;;;;0.13;0.10;;;10.30;99.90;;;;;;4212159;28;20788;-74
2023/12/26 06:25:29;;;;;;;0.10;0.10;;;10.30;99.90;;;;;;4214025;28;20794;-74
2023/12/26 06:27:31;;;;;;;0.20;0.10;;;10.30;99.90;;;;;;4214759;28;20219;-74
2023/12/26 06:29:35;;;;;;;0.40;0.20;;;10.20;99.90;;;;;;4211749;28;20687;-74
2023/12/26 06:31:37;;;;;;;0.10;0.10;;;10.20;99.90;;;;;;4213176;28;20209;-73
2023/12/26 06:33:39;;;;;;;2.70;0.50;;;10.20;99.90;;;;;;4218443;28;20231;-74
2023/12/26 06:35:41;;;;;;;0.20;0.10;;;10.20;99.90;;;;;;4214964;28;20519;-74
2023/12/26 06:37:43;;;;;;;0.03;0.03;;;10.20;99.90;;;;;;4213564;28;20661;-73
2023/12/26 06:39:44;;;;;;;0.30;0.10;;;10.20;99.90;;;;;;4215819;28;20570;-73
2023/12/26 06:41:46;;;;;;;0.00;0.00;;;10.20;99.90;;;;;;4216175;28;20208;-76
2023/12/26 06:43:48;;;;;;;0.10;0.10;;;10.20;99.90;;;;;;4210562;28;20213;-74
2023/12/26 06:45:54;;;;;;;0.10;0.10;;;10.20;99.90;;;;;;4211073;28;20205;-75
2023/12/26 06:47:56;;;;;;;0.20;0.10;;;10.20;99.90;;;;;;4212627;28;20308;-77
2023/12/26 06:49:58;;;;;;;0.10;0.10;;;10.30;99.90;;;;;;4213474;28;20735;-77
2023/12/26 06:52:02;;;;;;;0.10;0.10;;;10.30;99.90;;;;;;4212600;28;20220;-77
2023/12/26 06:54:03;;;;;;;0.10;0.10;;;10.30;99.90;;;;;;4216343;28;20208;-74
2023/12/26 06:56:05;;;;;;;0.10;0.10;;;10.30;99.90;;;;;;4211571;28;20209;-74
2023/12/26 06:58:07;;;;;;;0.30;0.20;;;10.30;99.90;;;;;;4211826;28;20218;-75
2023/12/26 07:00:10;;;;;;;0.40;0.20;;;10.30;99.90;;;;;;4211490;28;20201;-75
2023/12/26 07:02:14;;;;;;;0.40;0.20;;;10.30;99.90;;;;;;4215184;28;20235;-78
2023/12/26 07:04:16;;;;;;;0.20;0.20;;;10.30;99.90;;;;;;4219742;28;20204;-73
2023/12/26 07:06:18;;;;;;;0.20;0.10;;;10.30;99.90;;;;;;4213121;28;20213;-73
2023/12/26 07:08:20;;;;;;;3.43;0.10;;;10.30;99.90;;;;;;4215292;28;20826;-75
2023/12/26 07:10:22;;;;;;;0.10;0.10;;;10.40;99.90;;;;;;4213244;28;20711;-75
2023/12/26 07:12:24;;;;;;;0.30;0.20;;;10.40;99.90;;;;;;4213570;28;20233;-73
2023/12/26 07:14:26;;;;;;;0.17;0.13;;;10.30;99.90;;;;;;4210933;28;20843;-74
2023/12/26 07:16:28;;;;;;;1.53;0.10;;;10.30;99.90;;;;;;4210601;28;20205;-74
2023/12/26 07:18:31;;;;;;;1.10;0.20;;;10.40;99.90;;;;;;4212880;28;20286;-75
2023/12/26 07:20:32;;;;;;;0.40;0.10;;;10.30;99.90;;;;;;4212590;28;20216;-76
2023/12/26 07:22:34;;;;;;;0.10;0.10;;;10.30;99.90;;;;;;4216125;28;20278;-74
2023/12/26 07:24:38;;;;;;;0.50;0.10;;;10.30;99.90;;;;;;4216452;28;20619;-79
2023/12/26 07:26:40;;;;;;;0.20;0.10;;;10.30;99.90;;;;;;4207774;28;20250;-74
2023/12/26 07:28:42;;;;;;;0.20;0.20;;;10.30;99.90;;;;;;4213163;28;20247;-74
2023/12/26 07:30:44;;;;;;;0.30;0.30;;;10.30;99.90;;;;;;4214550;28;20220;-74
2023/12/26 07:32:46;;;;;;;0.10;0.10;;;10.30;99.90;;;;;;4218499;28;20235;-76
2023/12/26 07:34:49;;;;;;;0.27;0.20;;;10.40;99.90;;;;;;4206253;28;20210;-75
2023/12/26 07:36:54;;;;;;;0.30;0.13;;;10.40;99.90;;;;;;4212528;28;20220;-76
2023/12/26 07:38:56;;;;;;;0.77;0.40;;;10.30;99.90;;;;;;4211231;28;20212;-75
2023/12/26 07:40:58;;;;;;;0.50;0.20;;;10.30;99.90;;;;;;4213404;28;20207;-74
2023/12/26 07:42:59;;;;;;;0.23;0.23;;;10.40;99.90;;;;;;4216155;28;20285;-75
2023/12/26 07:45:01;;;;;;;0.43;0.20;;;10.30;99.90;;;;;;4214855;28;20219;-75
2023/12/26 07:47:02;;;;;;;0.33;0.20;;;10.40;99.90;;;;;;4218637;28;20215;-76
2023/12/26 07:49:04;;;;;;;0.73;0.27;;;10.30;99.90;;;;;;4214511;28;20223;-74
2023/12/26 07:51:10;;;;;;;0.37;0.20;;;10.30;99.90;;;;;;4214148;28;20755;-74
2023/12/26 07:53:11;;;;;;;0.50;0.30;;;10.30;99.90;;;;;;4214884;28;20277;-76
2023/12/26 07:55:13;;;;;;;1.50;0.20;;;10.40;99.90;;;;;;4214395;28;20213;-74
2023/12/26 07:57:17;;;;;;;0.27;0.27;;;10.40;99.90;;;;;;4212586;28;20212;-76
2023/12/26 07:59:19;;;;;;;0.43;0.20;;;10.30;99.90;;;;;;4212526;28;20211;-74
2023/12/26 08:01:20;;;;;;;0.63;0.40;;;10.40;99.90;;;;;;4210526;28;20660;-74
2023/12/26 08:03:22;;;;;;;0.80;0.30;;;10.40;99.90;;;;;;4222851;28;20230;-77
2023/12/26 08:05:24;;;;;;;0.40;0.27;;;10.40;99.90;;;;;;4217139;28;20219;-75
2023/12/26 08:07:29;;;;;;;0.70;0.27;;;10.40;99.90;;;;;;4211816;28;20201;-76
2023/12/26 08:09:31;;;;;;;0.70;0.40;;;10.40;99.90;;;;;;4207090;28;20209;-75
2023/12/26 08:11:32;;;;;;;1.00;0.67;;;10.40;99.90;;;;;;4212772;28;20225;-73
2023/12/26 08:13:34;;;;;;;1.33;0.40;;;10.40;99.90;;;;;;4212911;28;20217;-77
2023/12/26 08:15:36;;;;;;;1.80;0.50;;;10.40;99.90;;;;;;4216767;28;20960;-74
2023/12/26 08:17:38;;;;;;;0.80;0.50;;;10.40;99.90;;;;;;4211617;28;20221;-76
2023/12/26 08:19:40;;;;;;;2.77;0.37;;;10.40;99.90;;;;;;4217398;28;20201;-74
2023/12/26 08:21:42;;;;;;;1.50;0.40;;;10.40;99.90;;;;;;4215379;28;20266;-75
2023/12/26 08:23:46;;;;;;;1.80;1.00;;;10.40;99.90;;;;;;4213333;28;21072;-74
2023/12/26 08:25:48;;;;;;;0.43;0.43;;;10.40;99.90;;;;;;4215736;28;20209;-74
2023/12/26 08:27:50;;;;;;;2.13;0.40;;;10.40;99.90;;;;;;4213487;28;20212;-74
2023/12/26 08:29:52;;;;;;;1.10;0.80;;;10.40;99.90;;;;;;4210950;28;20200;-74
2023/12/26 08:31:53;;;;;;;1.53;0.57;;;10.40;99.90;;;;;;4210505;28;20766;-77
2023/12/26 08:33:55;;;;;;;1.53;0.80;;;10.40;99.90;;;;;;4210271;28;20275;-75
2023/12/26 08:35:57;;;;;;;1.63;0.60;;;10.40;99.90;;;;;;4210077;28;20212;-79
2023/12/26 08:37:59;;;;;;;1.23;0.40;;;10.40;99.90;;;;;;4210488;28;20239;-76
2023/12/26 08:40:02;;;;;;;2.83;1.37;;;10.50;99.90;;;;;;4215515;28;20208;-76
2023/12/26 08:42:04;;;;;;;1.97;0.50;;;10.50;99.90;;;;;;4213424;28;20302;-74
2023/12/26 08:44:06;;;;;;;0.40;0.40;;;10.50;99.90;;;;;;4213541;28;20201;-74
2023/12/26 08:46:08;;;;;;;2.83;0.43;;;10.40;99.90;;;;;;4211988;28;20216;-74
2023/12/26 08:48:10;;;;;;;3.00;0.40;;;10.50;99.90;;;;;;4211548;28;20202;-74
2023/12/26 08:50:12;;;;;;;0.90;0.50;;;10.50;99.90;;;;;;4222522;28;20285;-74
2023/12/26 08:52:14;;;;;;;0.80;0.40;;;10.40;99.90;;;;;;4213179;28;20225;-74
2023/12/26 08:54:16;;;;;;;1.53;0.50;;;10.40;99.90;;;;;;4221561;28;20220;-75
2023/12/26 08:56:20;;;;;;;1.80;0.40;;;10.40;99.90;;;;;;4221496;28;20209;-74
2023/12/26 08:58:22;;;;;;;0.50;0.50;;;10.40;99.90;;;;;;4214692;28;20212;-74
2023/12/26 09:00:24;;;;;;;1.07;0.50;;;10.40;99.90;;;;;;4218087;28;20707;-74
2023/12/26 09:02:26;;;;;;;2.50;0.57;;;10.30;99.90;;;;;;4199638;28;20228;-75
2023/12/26 09:04:27;;;;;;;0.63;0.50;;;10.30;99.90;;;;;;4218688;28;20209;-74
2023/12/26 09:06:29;;;;;;;0.90;0.40;;;10.20;99.90;;;;;;4213447;28;20212;-74
2023/12/26 09:08:31;;;;;;;1.47;0.80;;;10.20;99.90;;;;;;4213322;28;20699;-74
2023/12/26 09:10:33;;;;;;;3.33;0.70;;;10.10;99.90;;;;;;4213927;28;20248;-77
2023/12/26 09:12:36;;;;;;;2.77;1.17;;;10.10;99.90;;;;;;4212391;28;20747;-73
2023/12/26 09:14:40;;;;;;;0.90;0.80;;;10.10;99.90;;;;;;4215119;28;20213;-74
2023/12/26 09:16:44;;;;;;;2.27;0.83;;;10.10;99.90;;;;;;4213468;28;20204;-74
2023/12/26 09:18:46;;;;;;;2.17;0.90;;;10.10;99.90;;;;;;4216587;28;20257;-75
2023/12/26 09:20:48;;;;;;;1.40;0.80;;;10.10;99.90;;;;;;4211893;28;20488;-74
2023/12/26 09:22:51;;;;;;;1.57;1.00;;;10.10;99.90;;;;;;4213478;28;20234;-75
2023/12/26 09:24:53;;;;;;;2.67;1.23;;;10.10;99.90;;;;;;4214020;28;20278;-74
2023/12/26 09:26:55;;;;;;;1.10;0.70;;;10.10;99.90;;;;;;4211554;28;20273;-74
2023/12/26 09:28:58;;;;;;;1.90;0.87;;;10.10;99.90;;;;;;4208999;28;20211;-74
2023/12/26 09:31:00;;;;;;;1.40;0.90;;;10.20;99.90;;;;;;4212673;28;20755;-76
2023/12/26 09:33:02;;;;;;;1.70;0.87;;;10.20;99.90;;;;;;4213768;28;20254;-75
2023/12/26 09:35:05;;;;;;;1.67;0.87;;;10.10;99.90;;;;;;4213480;28;20253;-75
2023/12/26 09:37:07;;;;;;;2.97;1.00;;;10.10;99.90;;;;;;4220646;28;20200;-74
2023/12/26 09:39:08;;;;;;;3.50;0.73;;;10.10;99.90;;;;;;4213115;28;20330;-75
2023/12/26 09:41:13;;;;;;;1.57;0.80;;;10.10;99.90;;;;;;4213458;28;20342;-77
2023/12/26 09:43:16;;;;;;;2.30;0.93;;;10.10;99.90;;;;;;4221650;28;20232;-74
2023/12/26 09:45:23;;;;;;;1.97;1.00;;;10.10;99.90;;;;;;4217734;28;20561;-74
2023/12/26 09:47:26;;;;;;;1.83;0.70;;;10.10;99.90;;;;;;4210612;28;20212;-76
2023/12/26 09:49:28;;;;;;;2.60;1.00;;;10.10;99.90;;;;;;4216588;28;20204;-75
2023/12/26 09:51:37;;;;;;;1.17;0.80;;;10.10;99.90;;;;;;4212948;28;20227;-74
2023/12/26 09:53:43;;;;;;;4.20;1.27;;;10.10;99.90;;;;;;4219389;28;20254;-76
2023/12/26 09:55:46;;;;;;;2.23;0.93;;;10.00;99.90;;;;;;4212749;28;20212;-75
2023/12/26 09:57:47;;;;;;;1.27;0.57;;;9.90;99.90;;;;;;4219013;28;20200;-75
2023/12/26 09:59:49;;;;;;;2.30;1.13;;;9.80;99.90;;;;;;4218724;28;20208;-74
2023/12/26 10:01:52;;;;;;;2.43;0.80;;;9.80;99.90;;;;;;4215154;28;20200;-75
2023/12/26 10:03:56;;;;;;;2.27;1.00;;;9.80;99.90;;;;;;4208727;28;20561;-76
2023/12/26 10:06:02;;;;;;;1.23;0.70;;;9.80;99.90;;;;;;4212385;28;20213;-76
2023/12/26 10:08:04;;;;;;;1.23;0.70;;;9.80;99.90;;;;;;4212892;28;20292;-73
2023/12/26 10:10:06;;;;;;;3.60;0.60;;;9.80;99.90;;;;;;4217092;28;20218;-73
2023/12/26 10:12:11;;;;;;;1.10;0.70;;;9.70;99.90;;;;;;4209972;28;20239;-73
2023/12/26 10:14:13;;;;;;;3.27;1.10;;;9.70;99.90;;;;;;4213757;28;20204;-77
2023/12/26 10:16:15;;;;;;;3.17;1.00;;;9.70;99.90;;;;;;4211637;28;20207;-75
2023/12/26 10:18:19;;;;;;;5.97;2.20;;;9.80;99.90;;;;;;4213751;28;20212;-74
2023/12/26 10:20:21;;;;;;;3.10;1.20;;;9.80;99.90;;;;;;4214497;28;20264;-77
2023/12/26 10:22:23;;;;;;;3.60;1.60;;;9.80;99.90;;;;;;4217852;28;20233;-77
2023/12/26 10:24:25;;;;;;;2.20;0.90;;;9.90;99.90;;;;;;4213223;28;20218;-74
2023/12/26 10:26:28;;;;;;;1.57;0.70;;;9.90;99.90;;;;;;4219011;28;20235;-73
2023/12/26 10:28:29;;;;;;;0.90;0.50;;;10.00;99.90;;;;;;4212212;28;20213;-74
2023/12/26 10:30:31;;;;;;;1.03;0.57;;;10.00;99.90;;;;;;4212788;28;20609;-76
2023/12/26 10:32:32;;;;;;;1.90;0.70;;;10.20;99.90;;;;;;4214954;28;20969;-75
2023/12/26 10:34:35;;;;;;;1.80;0.60;;;10.20;99.90;;;;;;4212408;28;20715;-74
2023/12/26 10:36:42;;;;;;;0.83;0.60;;;10.20;99.90;;;;;;4212297;28;20288;-76
2023/12/26 10:38:45;;;;;;;3.67;0.70;;;10.30;99.90;;;;;;4216556;28;20668;-73
2023/12/26 10:40:47;;;;;;;1.90;1.07;;;10.30;99.90;;;;;;4217836;28;20243;-74